Aviation Digital Data Service (ADDS)

Output produced by METARs form (0210 UTC 22 April 2019)
found at http://www.aviationweather.gov/metar/data/
 
METAR text: MHLM 220200Z 36005KT 9999 FEW018 SCT080 25/21 Q1016 A3000 NOSIG
Conditions at: MHLM (LA MESA/PEDRO S , HN) observed 0200 UTC 22 April 2019
Temperature: 25.0°C (77°F)
Dewpoint: 21.0°C (70°F) [RH = 79%]
Pressure (altimeter): 30.00 inches Hg (1016.0 mb)
Winds: from the N (360 degrees) at 6 MPH (5 knots; 2.6 m/s)
Visibility: 6 or more miles (10+ km)
Ceiling: at least 12,000 feet AGL
Clouds: few clouds at 1800 feet AGL
scattered clouds at 8000 feet AGL
Weather: no significant weather observed at this time

METAR text: MHLM 220100Z 01008KT 9999 FEW028 SCT080 26/21 Q1016 A3000 NOSIG
Conditions at: MHLM (LA MESA/PEDRO S , HN) observed 0100 UTC 22 April 2019
Temperature: 26.0°C (79°F)
Dewpoint: 21.0°C (70°F) [RH = 74%]
Pressure (altimeter): 30.00 inches Hg (1016.0 mb)
Winds: from the N (10 degrees) at 9 MPH (8 knots; 4.1 m/s)
Visibility: 6 or more miles (10+ km)
Ceiling: at least 12,000 feet AGL
Clouds: few clouds at 2800 feet AGL
scattered clouds at 8000 feet AGL
Weather: no significant weather observed at this time

METAR text: MHLM 220000Z 01010KT 9999 FEW028 BKN080 27/20 Q1015 A2997 NOSIG
Conditions at: MHLM (LA MESA/PEDRO S , HN) observed 0000 UTC 22 April 2019
Temperature: 27.0°C (81°F)
Dewpoint: 20.0°C (68°F) [RH = 66%]
Pressure (altimeter): 29.97 inches Hg (1015.0 mb)
Winds: from the N (10 degrees) at 12 MPH (10 knots; 5.1 m/s)
Visibility: 6 or more miles (10+ km)
Ceiling: 8000 feet AGL
Clouds: few clouds at 2800 feet AGL
broken clouds at 8000 feet AGL
Weather: no significant weather observed at this time

METAR text: MHLM 212300Z 02011KT 9999 SCT028 BKN080 28/19 Q1015 A2997 NOSIG
Conditions at: MHLM (LA MESA/PEDRO S , HN) observed 2300 UTC 21 April 2019
Temperature: 28.0°C (82°F)
Dewpoint: 19.0°C (66°F) [RH = 58%]
Pressure (altimeter): 29.97 inches Hg (1015.0 mb)
Winds: from the NNE (20 degrees) at 13 MPH (11 knots; 5.7 m/s)
Visibility: 6 or more miles (10+ km)
Ceiling: 8000 feet AGL
Clouds: scattered clouds at 2800 feet AGL
broken clouds at 8000 feet AGL
Weather: no significant weather observed at this time

METAR text: MHLM 212200Z 04013KT 9999 SCT028 BKN080 29/20 Q1015 A2997 NOSIG
Conditions at: MHLM (LA MESA/PEDRO S , HN) observed 2200 UTC 21 April 2019
Temperature: 29.0°C (84°F)
Dewpoint: 20.0°C (68°F) [RH = 58%]
Pressure (altimeter): 29.97 inches Hg (1015.0 mb)
Winds: from the NE (40 degrees) at 15 MPH (13 knots; 6.7 m/s)
Visibility: 6 or more miles (10+ km)
Ceiling: 8000 feet AGL
Clouds: scattered clouds at 2800 feet AGL
broken clouds at 8000 feet AGL
Weather: no significant weather observed at this time

METAR text: MHLM 212100Z 02012KT 9999 SCT028 BKN080 30/20 Q1015 A2997 NOSIG
Conditions at: MHLM (LA MESA/PEDRO S , HN) observed 2100 UTC 21 April 2019
Temperature: 30.0°C (86°F)
Dewpoint: 20.0°C (68°F) [RH = 55%]
Pressure (altimeter): 29.97 inches Hg (1015.0 mb)
Winds: from the NNE (20 degrees) at 14 MPH (12 knots; 6.2 m/s)
Visibility: 6 or more miles (10+ km)
Ceiling: 8000 feet AGL
Clouds: scattered clouds at 2800 feet AGL
broken clouds at 8000 feet AGL
Weather: no significant weather observed at this time

METAR text: MHLM 212000Z 02013KT 9999 SCT028 30/20 Q1015 A297 NOSIG
Conditions at: MHLM (LA MESA/PEDRO S , HN) observed 2000 UTC 21 April 2019
Temperature: 30.0°C (86°F)
Dewpoint: 20.0°C (68°F) [RH = 55%]
Pressure (altimeter): 29.97 inches Hg (1015.0 mb)
Winds: from the NNE (20 degrees) at 15 MPH (13 knots; 6.7 m/s)
Visibility: 6 or more miles (10+ km)
Ceiling: at least 12,000 feet AGL
Clouds: scattered clouds at 2800 feet AGL
Weather: no significant weather observed at this time

METAR text: MHLM 211900Z 01010KT 9999 FEW028 30/19 Q1016 A3000 NOSIG
Conditions at: MHLM (LA MESA/PEDRO S , HN) observed 1900 UTC 21 April 2019
Temperature: 30.0°C (86°F)
Dewpoint: 19.0°C (66°F) [RH = 52%]
Pressure (altimeter): 30.00 inches Hg (1016.0 mb)
Winds: from the N (10 degrees) at 12 MPH (10 knots; 5.1 m/s)
Visibility: 6 or more miles (10+ km)
Ceiling: at least 12,000 feet AGL
Clouds: few clouds at 2800 feet AGL
Weather: no significant weather observed at this time

METAR text: MHLM 211800Z 02010KT 9999 FEW028 BKN080 29/18 Q1017 A3003 NOSIG
Conditions at: MHLM (LA MESA/PEDRO S , HN) observed 1800 UTC 21 April 2019
Temperature: 29.0°C (84°F)
Dewpoint: 18.0°C (64°F) [RH = 52%]
Pressure (altimeter): 30.03 inches Hg (1017.0 mb)
Winds: from the NNE (20 degrees) at 12 MPH (10 knots; 5.1 m/s)
Visibility: 6 or more miles (10+ km)
Ceiling: 8000 feet AGL
Clouds: few clouds at 2800 feet AGL
broken clouds at 8000 feet AGL
Weather: no significant weather observed at this time

METAR text: MHLM 211700Z 04009KT 9999 FEW028 BKN080 28/18 Q1018 A3006 NOSIG
Conditions at: MHLM (LA MESA/PEDRO S , HN) observed 1700 UTC 21 April 2019
Temperature: 28.0°C (82°F)
Dewpoint: 18.0°C (64°F) [RH = 55%]
Pressure (altimeter): 30.06 inches Hg (1018.0 mb)
Winds: from the NE (40 degrees) at 10 MPH (9 knots; 4.6 m/s)
Visibility: 6 or more miles (10+ km)
Ceiling: 8000 feet AGL
Clouds: few clouds at 2800 feet AGL
broken clouds at 8000 feet AGL
Weather: no significant weather observed at this time

METAR text: MHLM 211600Z 05005KT 9999 FEW025 SCT080 27/17 Q1019 A3009 NOSIG
Conditions at: MHLM (LA MESA/PEDRO S , HN) observed 1600 UTC 21 April 2019
Temperature: 27.0°C (81°F)
Dewpoint: 17.0°C (63°F) [RH = 54%]
Pressure (altimeter): 30.09 inches Hg (1019.0 mb)
Winds: from the NE (50 degrees) at 6 MPH (5 knots; 2.6 m/s)
Visibility: 6 or more miles (10+ km)
Ceiling: at least 12,000 feet AGL
Clouds: few clouds at 2500 feet AGL
scattered clouds at 8000 feet AGL
Weather: no significant weather observed at this time

METAR text: MHLM 211500Z 20005KT 9999 FEW025 SCT080 24/16 Q1019 A3009 NOSIG
Conditions at: MHLM (LA MESA/PEDRO S , HN) observed 1500 UTC 21 April 2019
Temperature: 24.0°C (75°F)
Dewpoint: 16.0°C (61°F) [RH = 61%]
Pressure (altimeter): 30.09 inches Hg (1019.0 mb)
Winds: from the SSW (200 degrees) at 6 MPH (5 knots; 2.6 m/s)
Visibility: 6 or more miles (10+ km)
Ceiling: at least 12,000 feet AGL
Clouds: few clouds at 2500 feet AGL
scattered clouds at 8000 feet AGL
Weather: no significant weather observed at this time

METAR text: MHLM 211400Z 24005KT 9999 FEW028 SCT080 21/16 Q1018 A3006 NOSIG
Conditions at: MHLM (LA MESA/PEDRO S , HN) observed 1400 UTC 21 April 2019
Temperature: 21.0°C (70°F)
Dewpoint: 16.0°C (61°F) [RH = 73%]
Pressure (altimeter): 30.06 inches Hg (1018.0 mb)
Winds: from the WSW (240 degrees) at 6 MPH (5 knots; 2.6 m/s)
Visibility: 6 or more miles (10+ km)
Ceiling: at least 12,000 feet AGL
Clouds: few clouds at 2800 feet AGL
scattered clouds at 8000 feet AGL
Weather: no significant weather observed at this time

METAR text: MHLM 211300Z 24005KT 9999 FEW025 SCT080 19/16 Q1018 A3006 NOSIG
Conditions at: MHLM (LA MESA/PEDRO S , HN) observed 1300 UTC 21 April 2019
Temperature: 19.0°C (66°F)
Dewpoint: 16.0°C (61°F) [RH = 83%]
Pressure (altimeter): 30.06 inches Hg (1018.0 mb)
Winds: from the WSW (240 degrees) at 6 MPH (5 knots; 2.6 m/s)
Visibility: 6 or more miles (10+ km)
Ceiling: at least 12,000 feet AGL
Clouds: few clouds at 2500 feet AGL
scattered clouds at 8000 feet AGL
Weather: no significant weather observed at this time

METAR text: MHLM 211200Z 21004KT 9999 FEW025 SCT250 18/16 Q1017 A3003 NOSIG
Conditions at: MHLM (LA MESA/PEDRO S , HN) observed 1200 UTC 21 April 2019
Temperature: 18.0°C (64°F)
Dewpoint: 16.0°C (61°F) [RH = 88%]
Pressure (altimeter): 30.03 inches Hg (1017.0 mb)
Winds: from the SSW (210 degrees) at 5 MPH (4 knots; 2.1 m/s)
Visibility: 6 or more miles (10+ km)
Ceiling: at least 12,000 feet AGL
Clouds: few clouds at 2500 feet AGL
scattered clouds at 25000 feet AGL
Weather: no significant weather observed at this time

METAR text: MHLM 210600Z 24004KT 9999 FEW025 SCT250 20/17 Q1018 A3006 NOSIG
Conditions at: MHLM (LA MESA/PEDRO S , HN) observed 0600 UTC 21 April 2019
Temperature: 20.0°C (68°F)
Dewpoint: 17.0°C (63°F) [RH = 83%]
Pressure (altimeter): 30.06 inches Hg (1018.0 mb)
Winds: from the WSW (240 degrees) at 5 MPH (4 knots; 2.1 m/s)
Visibility: 6 or more miles (10+ km)
Ceiling: at least 12,000 feet AGL
Clouds: few clouds at 2500 feet AGL
scattered clouds at 25000 feet AGL
Weather: no significant weather observed at this time

METAR text: MHLM 210500Z 00000KT 9999 FEW025 BKN250 21/18 Q1019 A3009 NOSIG
Conditions at: MHLM (LA MESA/PEDRO S , HN) observed 0500 UTC 21 April 2019
Temperature: 21.0°C (70°F)
Dewpoint: 18.0°C (64°F) [RH = 83%]
Pressure (altimeter): 30.09 inches Hg (1019.0 mb)
Winds: calm
Visibility: 6 or more miles (10+ km)
Ceiling: 25000 feet AGL
Clouds: few clouds at 2500 feet AGL
broken clouds at 25000 feet AGL
Weather: no significant weather observed at this time

METAR text: MHLM 210400Z 00000KT 9999 FEW025 BKN250 21/17 Q1019 A3009 NOSIG
Conditions at: MHLM (LA MESA/PEDRO S , HN) observed 0400 UTC 21 April 2019
Temperature: 21.0°C (70°F)
Dewpoint: 17.0°C (63°F) [RH = 78%]
Pressure (altimeter): 30.09 inches Hg (1019.0 mb)
Winds: calm
Visibility: 6 or more miles (10+ km)
Ceiling: 25000 feet AGL
Clouds: few clouds at 2500 feet AGL
broken clouds at 25000 feet AGL
Weather: no significant weather observed at this time

METAR text: MHLM 210300Z 35002KT 9999 FEW025 SCT250 23/18 Q1019 A3009 NOSIG
Conditions at: MHLM (LA MESA/PEDRO S , HN) observed 0300 UTC 21 April 2019
Temperature: 23.0°C (73°F)
Dewpoint: 18.0°C (64°F) [RH = 73%]
Pressure (altimeter): 30.09 inches Hg (1019.0 mb)
Winds: from the N (350 degrees) at 2 MPH (2 knots; 1.0 m/s)
Visibility: 6 or more miles (10+ km)
Ceiling: at least 12,000 feet AGL
Clouds: few clouds at 2500 feet AGL
scattered clouds at 25000 feet AGL
Weather: no significant weather observed at this time

METAR text: MHLM 210200Z 32002KT 9999 FEW025 SCT250 22/18 Q1018 A3006 NOSIG
Conditions at: MHLM (LA MESA/PEDRO S , HN) observed 0200 UTC 21 April 2019
Temperature: 22.0°C (72°F)
Dewpoint: 18.0°C (64°F) [RH = 78%]
Pressure (altimeter): 30.06 inches Hg (1018.0 mb)
Winds: from the NW (320 degrees) at 2 MPH (2 knots; 1.0 m/s)
Visibility: 6 or more miles (10+ km)
Ceiling: at least 12,000 feet AGL
Clouds: few clouds at 2500 feet AGL
scattered clouds at 25000 feet AGL
Weather: no significant weather observed at this time

METAR text: MHLM 210100Z 06003KT 9999 FEW025 BKN250 24/17 Q1017 A3003 NOSIG
Conditions at: MHLM (LA MESA/PEDRO S , HN) observed 0100 UTC 21 April 2019
Temperature: 24.0°C (75°F)
Dewpoint: 17.0°C (63°F) [RH = 65%]
Pressure (altimeter): 30.03 inches Hg (1017.0 mb)
Winds: from the ENE (60 degrees) at 3 MPH (3 knots; 1.5 m/s)
Visibility: 6 or more miles (10+ km)
Ceiling: 25000 feet AGL
Clouds: few clouds at 2500 feet AGL
broken clouds at 25000 feet AGL
Weather: no significant weather observed at this time

METAR text: MHLM 210000Z 05006KT 9999 FEW030 BKN250 25/16 Q1017 A3003 NOSIG
Conditions at: MHLM (LA MESA/PEDRO S , HN) observed 0000 UTC 21 April 2019
Temperature: 25.0°C (77°F)
Dewpoint: 16.0°C (61°F) [RH = 57%]
Pressure (altimeter): 30.03 inches Hg (1017.0 mb)
Winds: from the NE (50 degrees) at 7 MPH (6 knots; 3.1 m/s)
Visibility: 6 or more miles (10+ km)
Ceiling: 25000 feet AGL
Clouds: few clouds at 3000 feet AGL
broken clouds at 25000 feet AGL
Weather: no significant weather observed at this time

METAR text: MHLM 202300Z 06008KT 9999 FEW030 SCT070 BKN250 26/17 Q1017 A3003 NOSIG
Conditions at: MHLM (LA MESA/PEDRO S , HN) observed 2300 UTC 20 April 2019
Temperature: 26.0°C (79°F)
Dewpoint: 17.0°C (63°F) [RH = 58%]
Pressure (altimeter): 30.03 inches Hg (1017.0 mb)
Winds: from the ENE (60 degrees) at 9 MPH (8 knots; 4.1 m/s)
Visibility: 6 or more miles (10+ km)
Ceiling: 25000 feet AGL
Clouds: few clouds at 3000 feet AGL
scattered clouds at 7000 feet AGL
broken clouds at 25000 feet AGL
Weather: no significant weather observed at this time

METAR text: MHLM 202200Z 06012KT 9999 FEW030 BKN070 26/16 Q1016 A3000 NOSIG
Conditions at: MHLM (LA MESA/PEDRO S , HN) observed 2200 UTC 20 April 2019
Temperature: 26.0°C (79°F)
Dewpoint: 16.0°C (61°F) [RH = 54%]
Pressure (altimeter): 30.00 inches Hg (1016.0 mb)
Winds: from the ENE (60 degrees) at 14 MPH (12 knots; 6.2 m/s)
Visibility: 6 or more miles (10+ km)
Ceiling: 7000 feet AGL
Clouds: few clouds at 3000 feet AGL
broken clouds at 7000 feet AGL
Weather: no significant weather observed at this time

METAR text: MHLM 202100Z 07013KT 9999 FEW032 BKN080 27/16 Q1016 A3000 NOSIG
Conditions at: MHLM (LA MESA/PEDRO S , HN) observed 2100 UTC 20 April 2019
Temperature: 27.0°C (81°F)
Dewpoint: 16.0°C (61°F) [RH = 51%]
Pressure (altimeter): 30.00 inches Hg (1016.0 mb)
Winds: from the ENE (70 degrees) at 15 MPH (13 knots; 6.7 m/s)
Visibility: 6 or more miles (10+ km)
Ceiling: 8000 feet AGL
Clouds: few clouds at 3200 feet AGL
broken clouds at 8000 feet AGL
Weather: no significant weather observed at this time

METAR text: MHLM 202000Z 06018KT 9999 FEW032 BKN080 28/15 Q1017 A3003 NOSIG
Conditions at: MHLM (LA MESA/PEDRO S , HN) observed 2000 UTC 20 April 2019
Temperature: 28.0°C (82°F)
Dewpoint: 15.0°C (59°F) [RH = 45%]
Pressure (altimeter): 30.03 inches Hg (1017.0 mb)
Winds: from the ENE (60 degrees) at 21 MPH (18 knots; 9.3 m/s)
Visibility: 6 or more miles (10+ km)
Ceiling: 8000 feet AGL
Clouds: few clouds at 3200 feet AGL
broken clouds at 8000 feet AGL
Weather: no significant weather observed at this time

METAR text: MHLM 201900Z 03015KT 9999 FEW032 SCT080 30/13 Q1017 A3003 NOSIG
Conditions at: MHLM (LA MESA/PEDRO S , HN) observed 1900 UTC 20 April 2019
Temperature: 30.0°C (86°F)
Dewpoint: 13.0°C (55°F) [RH = 35%]
Pressure (altimeter): 30.03 inches Hg (1017.0 mb)
Winds: from the NNE (30 degrees) at 17 MPH (15 knots; 7.7 m/s)
Visibility: 6 or more miles (10+ km)
Ceiling: at least 12,000 feet AGL
Clouds: few clouds at 3200 feet AGL
scattered clouds at 8000 feet AGL
Weather: no significant weather observed at this time

METAR text: MHLM 201800Z 09010KT 9999 FEW030 SCT080 28/19 Q1018 A3006 NOSIG
Conditions at: MHLM (LA MESA/PEDRO S , HN) observed 1800 UTC 20 April 2019
Temperature: 28.0°C (82°F)
Dewpoint: 19.0°C (66°F) [RH = 58%]
Pressure (altimeter): 30.06 inches Hg (1018.0 mb)
Winds: from the E (90 degrees) at 12 MPH (10 knots; 5.1 m/s)
Visibility: 6 or more miles (10+ km)
Ceiling: at least 12,000 feet AGL
Clouds: few clouds at 3000 feet AGL
scattered clouds at 8000 feet AGL
Weather: no significant weather observed at this time

METAR text: MHLM 201700Z 10006KT 9999 SCT025 SCT080 26/19 Q1019 A3009 NOSIG
Conditions at: MHLM (LA MESA/PEDRO S , HN) observed 1700 UTC 20 April 2019
Temperature: 26.0°C (79°F)
Dewpoint: 19.0°C (66°F) [RH = 65%]
Pressure (altimeter): 30.09 inches Hg (1019.0 mb)
Winds: from the E (100 degrees) at 7 MPH (6 knots; 3.1 m/s)
Visibility: 6 or more miles (10+ km)
Ceiling: at least 12,000 feet AGL
Clouds: scattered clouds at 2500 feet AGL
scattered clouds at 8000 feet AGL
Weather: no significant weather observed at this time

METAR text: MHLM 201600Z 09003KT 9999 SCT025 SCT090 25/18 Q1020 A3012 NOSIG
Conditions at: MHLM (LA MESA/PEDRO S , HN) observed 1600 UTC 20 April 2019
Temperature: 25.0°C (77°F)
Dewpoint: 18.0°C (64°F) [RH = 65%]
Pressure (altimeter): 30.12 inches Hg (1020.0 mb)
Winds: from the E (90 degrees) at 3 MPH (3 knots; 1.5 m/s)
Visibility: 6 or more miles (10+ km)
Ceiling: at least 12,000 feet AGL
Clouds: scattered clouds at 2500 feet AGL
scattered clouds at 9000 feet AGL
Weather: no significant weather observed at this time

METAR text: MHLM 201500Z 13003KT 9999 FEW025 SCT090 24/20 Q1020 A3012 NOSIG
Conditions at: MHLM (LA MESA/PEDRO S , HN) observed 1500 UTC 20 April 2019
Temperature: 24.0°C (75°F)
Dewpoint: 20.0°C (68°F) [RH = 78%]
Pressure (altimeter): 30.12 inches Hg (1020.0 mb)
Winds: from the SE (130 degrees) at 3 MPH (3 knots; 1.5 m/s)
Visibility: 6 or more miles (10+ km)
Ceiling: at least 12,000 feet AGL
Clouds: few clouds at 2500 feet AGL
scattered clouds at 9000 feet AGL
Weather: no significant weather observed at this time

Forecast for: MHLM (LA MESA/PEDRO S , HN)
Text: TAF MHLM 212235Z 2200/2224 06008KT 9999 SCT028TCU BKN080 TX31/2219Z TN22/2212Z
Forecast period: 0000 to 0600 UTC 22 April 2019
Forecast type: FROM: standard forecast or significant change
Winds: from the ENE (60 degrees) at 9 MPH (8 knots; 4.1 m/s)
Visibility: 6 or more miles 10+ km)
Ceiling: 8000 feet AGL
Clouds: scattered clouds at 2800 feet AGL
broken clouds at 8000 feet AGL
Weather: no significant weather forecast for this period
Text: BECMG 2206/2208 15004KT SCT025 SCT080
Forecast period: 0600 to 1300 UTC 22 April 2019
Forecast type: BECOMING: Conditions expected to become as follows by 0800 UTC 22 April 2019
Winds: from the SSE (150 degrees) at 5 MPH (4 knots; 2.1 m/s)
Visibility: 6 or more miles 10+ km)
Ceiling: at least 12,000 feet AGL
Clouds: scattered clouds at 2500 feet AGL
scattered clouds at 8000 feet AGL
Weather: no significant weather forecast for this period
Text: BECMG 2213/2215 00000KT SCT026
Forecast period: 1300 to 1800 UTC 22 April 2019
Forecast type: BECOMING: Conditions expected to become as follows by 1500 UTC 22 April 2019
Winds: calm
Visibility: 6 or more miles 10+ km)
Ceiling: at least 12,000 feet AGL
Clouds: scattered clouds at 2600 feet AGL
Weather: no significant weather forecast for this period
Text: BECMG 2218/2220 03008KT
Forecast period: 1800 UTC 22 April 2019 to 0000 UTC 23 April 2019
Forecast type: BECOMING: Conditions expected to become as follows by 2000 UTC 22 April 2019
Winds: from the NNE (30 degrees) at 9 MPH (8 knots; 4.1 m/s)
Visibility: 6 or more miles 10+ km)
Ceiling: at least 12,000 feet AGL
Clouds: scattered clouds at 2600 feet AGL
Weather: no significant weather forecast for this period